createdAt,value
2019-03-21T00:00:38.338Z,1.80
2019-03-21T00:03:06.901Z,1.80
2019-03-21T00:05:36.154Z,1.90
2019-03-21T00:08:05.938Z,1.90
2019-03-21T00:10:37.618Z,1.90
2019-03-21T00:13:05.956Z,1.80
2019-03-21T00:15:43.725Z,1.80
2019-03-21T00:18:15.104Z,1.80
2019-03-21T00:20:43.650Z,1.80
2019-03-21T00:23:12.052Z,1.70
2019-03-21T00:25:40.526Z,1.60
2019-03-21T00:28:08.848Z,1.60
2019-03-21T00:30:37.566Z,1.60
2019-03-21T00:33:06.084Z,1.60
2019-03-21T00:35:34.562Z,1.60
2019-03-21T00:38:02.951Z,1.60
2019-03-21T00:40:43.995Z,1.60
2019-03-21T00:43:13.190Z,1.60
2019-03-21T00:45:41.696Z,1.60
2019-03-21T00:48:12.359Z,1.60
2019-03-21T00:50:41.225Z,1.60
2019-03-21T00:53:09.613Z,1.50
2019-03-21T00:55:40.893Z,1.50
2019-03-21T00:58:09.209Z,1.50
2019-03-21T01:00:40.841Z,1.40
2019-03-21T01:03:10.592Z,1.40
2019-03-21T01:05:39.095Z,1.40
2019-03-21T01:08:07.552Z,1.30
2019-03-21T01:10:36.047Z,1.30
2019-03-21T01:13:04.589Z,1.30
2019-03-21T01:15:33.086Z,1.30
2019-03-21T01:18:01.846Z,1.30
2019-03-21T01:20:30.192Z,1.30
2019-03-21T01:22:58.744Z,1.20
2019-03-21T01:25:48.501Z,1.20
2019-03-21T01:28:16.813Z,1.20
2019-03-21T01:30:45.222Z,1.20
2019-03-21T01:33:13.851Z,1.30
2019-03-21T01:35:42.540Z,1.30
2019-03-21T01:38:10.841Z,1.40
2019-03-21T01:40:48.103Z,1.40
2019-03-21T01:43:16.885Z,1.40
2019-03-21T01:45:45.217Z,1.30
2019-03-21T01:48:13.547Z,1.30
2019-03-21T01:50:43.519Z,1.20
2019-03-21T01:53:11.836Z,1.10
2019-03-21T01:55:40.511Z,1.00
2019-03-21T01:58:08.827Z,1.00
2019-03-21T02:00:41.495Z,1.10
2019-03-21T02:03:09.805Z,1.20
2019-03-21T02:05:38.320Z,1.20
2019-03-21T02:08:06.655Z,1.20
2019-03-21T02:10:35.632Z,1.30
2019-03-21T02:13:04.272Z,1.20
2019-03-21T02:15:33.094Z,1.10
2019-03-21T02:18:01.420Z,1.00
2019-03-21T02:20:29.909Z,0.90
2019-03-21T02:22:58.407Z,0.90
2019-03-21T02:25:32.688Z,0.90
2019-03-21T02:28:01.015Z,1.00
2019-03-21T02:30:37.381Z,1.00
2019-03-21T02:33:23.841Z,1.20
2019-03-21T02:35:52.278Z,1.20
2019-03-21T02:38:22.562Z,1.20
2019-03-21T02:40:53.687Z,1.30
2019-03-21T02:43:22.083Z,1.30
2019-03-21T02:45:50.736Z,1.30
2019-03-21T02:48:19.235Z,1.30
2019-03-21T02:50:47.718Z,1.30
2019-03-21T02:53:16.067Z,1.30
2019-03-21T02:55:44.609Z,1.30
2019-03-21T02:58:12.950Z,1.30
2019-03-21T03:00:45.459Z,1.30
2019-03-21T03:03:14.101Z,1.30
2019-03-21T03:05:42.628Z,1.20
2019-03-21T03:08:11.171Z,1.20
2019-03-21T03:10:44.899Z,1.20
2019-03-21T03:13:13.282Z,1.10
2019-03-21T03:15:42.530Z,1.00
2019-03-21T03:18:22.089Z,1.00
2019-03-21T03:20:50.714Z,1.00
2019-03-21T03:23:19.026Z,1.00
2019-03-21T03:25:50.586Z,1.00
2019-03-21T03:28:23.512Z,0.90
2019-03-21T03:30:57.130Z,0.90
2019-03-21T03:33:25.802Z,0.90
2019-03-21T03:35:54.197Z,0.90
2019-03-21T03:38:22.593Z,0.90
2019-03-21T03:41:01.389Z,0.80
2019-03-21T03:43:29.780Z,0.80
2019-03-21T03:45:58.344Z,0.80
2019-03-21T03:48:27.815Z,0.70
2019-03-21T03:50:56.395Z,0.60
2019-03-21T03:53:24.879Z,0.60
2019-03-21T03:55:53.389Z,0.60
2019-03-21T03:58:26.595Z,0.50
2019-03-21T04:00:55.093Z,0.40
2019-03-21T04:03:24.337Z,0.40
2019-03-21T04:05:52.919Z,0.50
2019-03-21T04:08:21.476Z,0.50
2019-03-21T04:10:54.071Z,0.60
2019-03-21T04:13:22.578Z,0.60
2019-03-21T04:15:53.111Z,0.70
2019-03-21T04:18:23.186Z,0.70
2019-03-21T04:20:57.611Z,0.60
2019-03-21T04:23:26.267Z,0.60
2019-03-21T04:26:10.073Z,0.60
2019-03-21T04:28:38.751Z,0.60
2019-03-21T04:31:07.080Z,0.60
2019-03-21T04:33:35.399Z,0.60
2019-03-21T04:36:03.783Z,0.60
2019-03-21T04:38:32.130Z,0.70
2019-03-21T04:41:00.657Z,0.60
2019-03-21T04:43:29.007Z,0.50
2019-03-21T04:46:03.385Z,0.50
2019-03-21T04:48:27.700Z,0.50
2019-03-21T04:50:56.172Z,0.50
2019-03-21T04:53:24.683Z,0.50
2019-03-21T04:55:53.320Z,0.50
2019-03-21T04:58:21.636Z,0.50
2019-03-21T05:00:52.209Z,0.50
2019-03-21T05:03:23.780Z,0.50
2019-03-21T05:05:52.458Z,0.50
2019-03-21T05:08:20.776Z,0.40
2019-03-21T05:10:49.104Z,0.30
2019-03-21T05:13:17.674Z,0.10
2019-03-21T05:15:47.774Z,0.10
2019-03-21T05:18:31.400Z,0.10
2019-03-21T05:21:01.147Z,0.00
2019-03-21T05:23:29.723Z,0.00
2019-03-21T05:25:58.065Z,-0.10
2019-03-21T05:28:26.400Z,-0.10
2019-03-21T05:31:07.146Z,-0.10
2019-03-21T05:33:35.795Z,-0.10
2019-03-21T05:36:04.243Z,-0.10
2019-03-21T05:38:33.417Z,-0.10
2019-03-21T05:41:01.816Z,-0.10
2019-03-21T05:43:39.080Z,-0.10
2019-03-21T05:46:07.575Z,0.00
2019-03-21T05:48:36.168Z,0.10
2019-03-21T05:51:04.487Z,0.20
2019-03-21T05:53:32.984Z,0.30
2019-03-21T05:56:01.378Z,0.40
2019-03-21T05:58:29.865Z,0.40
2019-03-21T06:01:03.250Z,0.50
2019-03-21T06:03:52.890Z,0.50
2019-03-21T06:06:33.712Z,0.50
2019-03-21T06:09:02.023Z,0.60
2019-03-21T06:11:30.518Z,0.60
2019-03-21T06:13:59.037Z,0.70
2019-03-21T06:16:37.262Z,0.70
2019-03-21T06:19:07.025Z,0.70
2019-03-21T06:21:41.566Z,0.80
2019-03-21T06:24:15.942Z,0.90
2019-03-21T06:26:50.454Z,1.10
2019-03-21T06:29:18.289Z,1.10
2019-03-21T06:31:46.606Z,1.20
2019-03-21T06:34:15.288Z,1.20
2019-03-21T06:36:43.636Z,1.20
2019-03-21T06:39:11.972Z,1.30
2019-03-21T06:41:40.519Z,1.30
2019-03-21T06:44:09.109Z,1.30
2019-03-21T06:46:49.425Z,1.40
2019-03-21T06:49:11.941Z,1.40
2019-03-21T06:51:40.343Z,1.50
2019-03-21T06:54:08.917Z,1.60
2019-03-21T06:56:38.969Z,1.80
2019-03-21T06:59:09.190Z,1.90
2019-03-21T07:01:37.643Z,1.90
2019-03-21T07:04:07.952Z,2.00
2019-03-21T07:06:36.305Z,2.10
2019-03-21T07:09:07.363Z,2.20
2019-03-21T07:11:35.764Z,2.20
2019-03-21T07:14:04.104Z,2.30
2019-03-21T07:16:32.613Z,2.40
2019-03-21T07:19:01.110Z,2.50
2019-03-21T07:21:29.634Z,2.50
2019-03-21T07:23:58.126Z,2.60
2019-03-21T07:26:26.460Z,2.70
2019-03-21T07:28:55.056Z,2.80
2019-03-21T07:31:23.723Z,2.90
2019-03-21T07:33:52.477Z,3.00
2019-03-21T07:36:20.880Z,3.40
2019-03-21T07:38:49.193Z,3.50
2019-03-21T07:41:17.672Z,3.50
2019-03-21T07:43:46.160Z,3.90
2019-03-21T07:46:14.655Z,4.20
2019-03-21T07:48:43.211Z,4.20
2019-03-21T07:51:11.791Z,4.10
2019-03-21T07:53:40.164Z,4.00
2019-03-21T07:56:08.981Z,3.90
2019-03-21T07:58:37.503Z,3.90
2019-03-21T08:01:06.042Z,3.90
2019-03-21T08:03:34.788Z,3.90
2019-03-21T08:06:03.166Z,4.00
2019-03-21T08:08:31.676Z,4.10
2019-03-21T08:10:59.991Z,4.20
2019-03-21T08:13:28.551Z,4.30
2019-03-21T08:15:56.901Z,4.40
2019-03-21T08:18:25.395Z,4.50
2019-03-21T08:20:58.483Z,4.50
2019-03-21T08:23:24.021Z,4.50
2019-03-21T08:25:52.396Z,4.60
2019-03-21T08:28:22.375Z,4.70
2019-03-21T08:31:08.940Z,4.80
2019-03-21T08:33:37.605Z,4.80
2019-03-21T08:36:06.089Z,4.90
2019-03-21T08:38:34.662Z,5.00
2019-03-21T08:41:03.057Z,5.00
2019-03-21T08:43:31.440Z,5.20
2019-03-21T08:46:00.006Z,5.30
2019-03-21T08:48:28.316Z,5.40
2019-03-21T08:51:07.384Z,5.60
2019-03-21T08:53:27.104Z,5.80
2019-03-21T08:55:55.663Z,5.90
2019-03-21T08:58:24.388Z,6.00
2019-03-21T09:00:52.770Z,6.00
2019-03-21T09:03:21.082Z,6.10
2019-03-21T09:05:49.593Z,6.10
2019-03-21T09:08:17.897Z,6.10
2019-03-21T09:10:46.469Z,6.20
2019-03-21T09:13:14.982Z,6.20
2019-03-21T09:15:43.292Z,6.40
2019-03-21T09:18:11.788Z,6.50
2019-03-21T09:20:40.278Z,6.50
2019-03-21T09:23:08.674Z,6.60
2019-03-21T09:25:37.153Z,6.50
2019-03-21T09:28:05.559Z,6.60
2019-03-21T09:30:33.937Z,6.60
2019-03-21T09:33:02.274Z,6.60
2019-03-21T09:35:30.760Z,6.60
2019-03-21T09:37:59.447Z,6.70
2019-03-21T09:40:28.102Z,6.70
2019-03-21T09:42:56.421Z,6.70
2019-03-21T09:45:24.817Z,6.80
2019-03-21T09:47:53.153Z,6.90
2019-03-21T09:50:29.363Z,7.00
2019-03-21T09:52:57.834Z,7.20
2019-03-21T09:55:26.455Z,7.30
2019-03-21T09:57:54.936Z,7.30
2019-03-21T10:00:29.337Z,7.30
2019-03-21T10:02:57.814Z,7.20
2019-03-21T10:05:26.312Z,7.30
2019-03-21T10:07:54.622Z,7.40
2019-03-21T10:10:30.402Z,7.60
2019-03-21T10:12:58.946Z,7.70
2019-03-21T10:15:27.518Z,7.80
2019-03-21T10:17:55.904Z,7.90
2019-03-21T10:20:24.417Z,8.00
2019-03-21T10:22:52.807Z,8.10
2019-03-21T10:25:21.157Z,8.10
2019-03-21T10:27:49.532Z,8.00
2019-03-21T10:30:39.614Z,8.20
2019-03-21T10:33:09.658Z,8.30
2019-03-21T10:35:37.993Z,8.30
2019-03-21T10:38:06.561Z,8.40
2019-03-21T10:40:35.074Z,8.40
2019-03-21T10:43:03.474Z,8.50
2019-03-21T10:45:31.797Z,8.50
2019-03-21T10:48:00.174Z,8.60
2019-03-21T10:50:33.980Z,8.70
2019-03-21T10:53:02.459Z,8.80
2019-03-21T10:55:30.843Z,8.90
2019-03-21T10:57:59.245Z,8.90
2019-03-21T11:00:27.881Z,8.80
2019-03-21T11:02:56.382Z,8.90
2019-03-21T11:05:25.096Z,9.00
2019-03-21T11:07:53.758Z,9.20
2019-03-21T11:10:22.143Z,9.50
2019-03-21T11:12:50.807Z,9.60
2019-03-21T11:15:19.731Z,9.60
2019-03-21T11:17:48.433Z,9.60
2019-03-21T11:20:30.668Z,9.60
2019-03-21T11:22:59.177Z,9.60
2019-03-21T11:25:27.707Z,9.80
2019-03-21T11:27:56.320Z,10.00
2019-03-21T11:30:40.895Z,10.20
2019-03-21T11:33:09.368Z,10.20
2019-03-21T11:35:37.921Z,10.30
2019-03-21T11:38:06.605Z,10.40
2019-03-21T11:40:35.055Z,10.40
2019-03-21T11:43:04.703Z,10.30
2019-03-21T11:45:33.469Z,10.40
2019-03-21T11:48:02.128Z,10.40
2019-03-21T11:50:30.683Z,10.40
2019-03-21T11:52:59.263Z,10.60
2019-03-21T11:55:27.935Z,10.70
2019-03-21T11:57:56.271Z,10.70
2019-03-21T12:00:24.845Z,10.70
2019-03-21T12:02:53.515Z,10.70
2019-03-21T12:05:22.074Z,10.80
2019-03-21T12:07:50.557Z,10.80
2019-03-21T12:10:18.908Z,10.80
2019-03-21T12:12:47.545Z,11.00
2019-03-21T12:15:16.270Z,11.00
2019-03-21T12:17:44.661Z,11.10
2019-03-21T12:20:32.572Z,11.20
2019-03-21T12:23:00.915Z,11.30
2019-03-21T12:25:29.468Z,11.40
2019-03-21T12:27:57.841Z,11.40
2019-03-21T12:30:37.074Z,11.60
2019-03-21T12:33:05.527Z,11.60
2019-03-21T12:35:33.876Z,11.70
2019-03-21T12:38:02.273Z,11.90
2019-03-21T12:40:30.605Z,11.90
2019-03-21T12:42:59.162Z,12.10
2019-03-21T12:45:27.638Z,12.40
2019-03-21T12:47:56.034Z,12.60
2019-03-21T12:50:24.544Z,12.70
2019-03-21T12:52:52.884Z,12.80
2019-03-21T12:55:21.214Z,13.00
2019-03-21T12:57:49.808Z,13.10
2019-03-21T13:00:32.865Z,13.30
2019-03-21T13:03:01.202Z,13.60
2019-03-21T13:05:30.743Z,14.00
2019-03-21T13:07:59.082Z,14.60
2019-03-21T13:10:27.418Z,15.20
2019-03-21T13:12:55.761Z,16.00
2019-03-21T13:15:29.954Z,16.80
2019-03-21T13:17:54.585Z,17.20
2019-03-21T13:20:22.982Z,18.30
2019-03-21T13:22:53.300Z,19.50
2019-03-21T13:25:21.785Z,20.20
2019-03-21T13:27:50.157Z,20.20
2019-03-21T13:30:18.590Z,20.30
2019-03-21T13:32:47.314Z,20.50
2019-03-21T13:35:15.858Z,20.40
2019-03-21T13:37:44.573Z,20.20
2019-03-21T13:40:14.431Z,21.20
2019-03-21T13:42:42.777Z,21.60
2019-03-21T13:45:11.453Z,21.50
2019-03-21T13:47:39.934Z,21.90
2019-03-21T13:50:08.528Z,21.80
2019-03-21T13:52:36.904Z,21.60
2019-03-21T13:55:07.112Z,21.60
2019-03-21T13:57:35.585Z,21.20
2019-03-21T14:00:06.657Z,21.40
2019-03-21T14:02:35.137Z,22.10
2019-03-21T14:05:05.013Z,22.70
2019-03-21T14:07:33.334Z,22.90
2019-03-21T14:10:01.669Z,22.90
2019-03-21T14:12:29.987Z,22.70
2019-03-21T14:14:58.407Z,23.10
2019-03-21T14:17:26.879Z,23.40
2019-03-21T14:19:55.446Z,23.20
2019-03-21T14:22:23.763Z,22.80
2019-03-21T14:24:52.273Z,22.80
2019-03-21T14:27:20.814Z,22.70
2019-03-21T14:30:00.539Z,22.70
2019-03-21T14:32:19.733Z,22.80
2019-03-21T14:34:48.295Z,23.20
2019-03-21T14:37:16.626Z,24.00
2019-03-21T14:39:45.008Z,25.50
2019-03-21T14:42:13.529Z,26.10
2019-03-21T14:44:42.062Z,25.50
2019-03-21T14:47:10.419Z,24.80
2019-03-21T14:49:38.739Z,24.90
2019-03-21T14:52:07.258Z,25.90
2019-03-21T14:54:35.787Z,26.40
2019-03-21T14:57:04.175Z,26.50
2019-03-21T14:59:32.502Z,25.80
2019-03-21T15:02:01.027Z,25.70
2019-03-21T15:04:29.502Z,25.40
2019-03-21T15:06:58.012Z,25.50
2019-03-21T15:09:26.329Z,25.70
2019-03-21T15:11:54.748Z,25.80
2019-03-21T15:14:23.172Z,25.70
2019-03-21T15:16:51.687Z,24.60
2019-03-21T15:19:19.992Z,23.70
2019-03-21T15:21:48.591Z,23.50
2019-03-21T15:24:16.980Z,23.10
2019-03-21T15:26:45.470Z,22.80
2019-03-21T15:29:13.849Z,22.70
2019-03-21T15:31:42.526Z,22.30
2019-03-21T15:34:10.928Z,22.00
2019-03-21T15:36:39.295Z,21.40
2019-03-21T15:39:08.354Z,20.90
2019-03-21T15:41:37.869Z,20.80
2019-03-21T15:44:06.190Z,20.20
2019-03-21T15:46:34.691Z,19.80
2019-03-21T15:49:03.187Z,19.70
2019-03-21T15:51:31.509Z,19.80
2019-03-21T15:54:00.168Z,20.20
2019-03-21T15:56:28.673Z,20.10
2019-03-21T15:58:56.993Z,20.00
2019-03-21T16:01:25.402Z,19.80
2019-03-21T16:03:53.749Z,19.40
2019-03-21T16:06:22.082Z,19.40
2019-03-21T16:08:50.464Z,19.40
2019-03-21T16:11:19.005Z,19.20
2019-03-21T16:13:47.355Z,19.10
2019-03-21T16:16:15.918Z,18.80
2019-03-21T16:18:44.422Z,18.40
2019-03-21T16:21:12.729Z,18.20
2019-03-21T16:23:41.240Z,18.30
2019-03-21T16:26:09.734Z,18.00
2019-03-21T16:28:38.059Z,17.50
2019-03-21T16:31:06.512Z,16.60
2019-03-21T16:33:35.102Z,15.70
2019-03-21T16:36:03.647Z,15.20
2019-03-21T16:38:32.001Z,14.60
2019-03-21T16:41:00.525Z,14.00
2019-03-21T16:43:28.932Z,13.60
2019-03-21T16:45:57.646Z,13.30
2019-03-21T16:48:25.997Z,13.10
2019-03-21T16:50:54.484Z,13.00
2019-03-21T16:53:23.043Z,12.80
2019-03-21T16:55:51.363Z,12.60
2019-03-21T16:58:19.703Z,12.40
2019-03-21T17:00:48.020Z,12.30
2019-03-21T17:03:16.368Z,12.20
2019-03-21T17:05:44.886Z,12.10
2019-03-21T17:08:13.471Z,12.00
2019-03-21T17:10:41.841Z,11.80
2019-03-21T17:13:10.278Z,11.80
2019-03-21T17:15:45.938Z,11.70
2019-03-21T17:18:19.184Z,11.60
2019-03-21T17:20:47.635Z,11.50
2019-03-21T17:23:16.181Z,11.40
2019-03-21T17:25:44.542Z,11.40
2019-03-21T17:28:12.932Z,11.20
2019-03-21T17:30:41.449Z,11.10
2019-03-21T17:33:09.939Z,11.00
2019-03-21T17:35:38.322Z,11.00
2019-03-21T17:38:06.895Z,11.00
2019-03-21T17:40:37.044Z,11.00
2019-03-21T17:43:07.172Z,10.90
2019-03-21T17:45:38.594Z,10.80
2019-03-21T17:48:07.249Z,10.60
2019-03-21T17:50:37.470Z,10.50
2019-03-21T17:53:08.882Z,10.40
2019-03-21T17:55:37.745Z,10.30
2019-03-21T17:58:07.722Z,10.10
2019-03-21T18:00:36.972Z,10.00
2019-03-21T18:03:05.309Z,10.00
2019-03-21T18:05:33.638Z,10.00
2019-03-21T18:08:02.246Z,9.90
2019-03-21T18:10:34.188Z,9.90
2019-03-21T18:13:04.272Z,9.80
2019-03-21T18:15:32.790Z,9.70
2019-03-21T18:18:03.040Z,9.60
2019-03-21T18:20:31.547Z,9.60
2019-03-21T18:26:06.259Z,9.70
2019-03-21T18:28:34.777Z,9.70
2019-03-21T18:31:03.105Z,9.80
2019-03-21T18:33:34.541Z,9.80
2019-03-21T18:36:03.215Z,9.70
2019-03-21T18:41:58.767Z,9.60
2019-03-21T18:51:46.489Z,9.30
2019-03-21T19:04:22.330Z,8.70
2019-03-21T19:10:01.625Z,8.80
2019-03-21T19:12:31.722Z,8.70
2019-03-21T19:15:00.677Z,8.60
2019-03-21T19:17:29.314Z,8.50
2019-03-21T19:19:57.822Z,8.40
2019-03-21T19:22:28.505Z,8.40
2019-03-21T19:24:57.457Z,8.40
2019-03-21T19:27:26.782Z,8.40
2019-03-21T19:29:56.691Z,8.40
2019-03-21T19:32:27.464Z,8.50
2019-03-21T19:35:02.290Z,8.50
2019-03-21T19:37:30.714Z,8.40
2019-03-21T19:39:59.207Z,8.40
2019-03-21T19:42:28.002Z,8.40
2019-03-21T19:44:56.982Z,8.30
2019-03-21T19:47:30.264Z,8.30
2019-03-21T19:49:56.732Z,8.20
2019-03-21T19:52:25.342Z,8.10
2019-03-21T19:54:53.891Z,8.00
2019-03-21T19:57:22.687Z,7.90
2019-03-21T19:59:51.368Z,8.00
2019-03-21T20:02:19.923Z,7.90
2019-03-21T20:04:48.532Z,7.90
2019-03-21T20:07:17.271Z,8.00
2019-03-21T20:09:45.924Z,8.00
2019-03-21T20:12:14.365Z,8.00
2019-03-21T20:14:43.271Z,8.00
2019-03-21T20:17:13.094Z,7.90
2019-03-21T20:19:42.878Z,7.90
2019-03-21T20:22:12.134Z,7.80
2019-03-21T20:24:43.991Z,7.70
2019-03-21T20:27:12.458Z,7.70
2019-03-21T20:29:42.029Z,7.60
2019-03-21T20:32:20.073Z,7.50
2019-03-21T20:34:40.509Z,7.40
2019-03-21T20:37:09.019Z,7.30
2019-03-21T20:39:37.543Z,7.10
2019-03-21T20:42:05.964Z,6.90
2019-03-21T20:44:34.879Z,6.70
2019-03-21T20:47:03.303Z,6.60
2019-03-21T20:49:31.979Z,6.60
2019-03-21T20:52:00.871Z,6.50
2019-03-21T20:54:29.588Z,6.60
2019-03-21T20:56:58.354Z,6.50
2019-03-21T20:59:27.264Z,6.50
2019-03-21T21:02:02.558Z,6.40
2019-03-21T21:04:26.345Z,6.40
2019-03-21T21:06:54.840Z,6.30
2019-03-21T21:09:23.349Z,6.20
2019-03-21T21:11:51.899Z,6.10
2019-03-21T21:14:20.396Z,6.10
2019-03-21T21:16:49.122Z,5.90
2019-03-21T21:19:17.817Z,5.90
2019-03-21T21:21:46.645Z,5.80
2019-03-21T21:24:15.462Z,5.70
2019-03-21T21:26:44.151Z,5.70
2019-03-21T21:29:13.170Z,5.60
2019-03-21T21:31:41.751Z,5.60
2019-03-21T21:34:10.637Z,5.60
2019-03-21T21:36:39.435Z,5.60
2019-03-21T21:39:08.059Z,5.50
2019-03-21T21:41:36.554Z,5.40
2019-03-21T21:44:05.297Z,5.40
2019-03-21T21:46:34.031Z,5.30
2019-03-21T21:49:02.580Z,5.30
2019-03-21T21:51:31.328Z,5.30
2019-03-21T21:54:00.214Z,5.40
2019-03-21T21:56:28.842Z,5.50
2019-03-21T21:58:57.432Z,5.60
2019-03-21T22:01:26.313Z,5.60
2019-03-21T22:04:04.117Z,5.50
2019-03-21T22:06:25.051Z,5.30
2019-03-21T22:08:53.473Z,5.20
2019-03-21T22:11:22.149Z,5.00
2019-03-21T22:13:50.774Z,5.00
2019-03-21T22:16:19.329Z,4.90
2019-03-21T22:18:47.818Z,4.90
2019-03-21T22:21:16.695Z,5.00
2019-03-21T22:23:45.282Z,5.10
2019-03-21T22:26:13.959Z,5.10
2019-03-21T22:28:42.488Z,5.10
2019-03-21T22:31:11.056Z,5.00
2019-03-21T22:33:39.537Z,4.90
2019-03-21T22:36:08.093Z,5.00
2019-03-21T22:38:36.659Z,5.00
2019-03-21T22:41:05.389Z,5.00
2019-03-21T22:43:33.998Z,5.00
2019-03-21T22:46:02.478Z,5.00
2019-03-21T22:48:31.058Z,5.00
2019-03-21T22:50:59.718Z,5.10
2019-03-21T22:53:30.182Z,5.10
2019-03-21T22:55:58.610Z,5.10
2019-03-21T22:58:31.660Z,4.90
2019-03-21T23:00:57.416Z,4.60
2019-03-21T23:03:26.000Z,4.50
2019-03-21T23:05:54.718Z,4.40
2019-03-21T23:08:23.757Z,4.30
2019-03-21T23:10:52.704Z,4.20
2019-03-21T23:13:21.194Z,4.10
2019-03-21T23:15:49.878Z,4.00
2019-03-21T23:18:18.196Z,3.90
2019-03-21T23:20:46.664Z,3.90
2019-03-21T23:23:15.227Z,3.90
2019-03-21T23:25:43.737Z,3.80
2019-03-21T23:28:12.405Z,3.90
2019-03-21T23:30:40.977Z,3.90
2019-03-21T23:33:09.456Z,4.00
2019-03-21T23:35:38.138Z,4.10
2019-03-21T23:38:06.793Z,4.20
2019-03-21T23:40:35.366Z,4.20
2019-03-21T23:43:04.133Z,4.20
2019-03-21T23:45:32.607Z,4.10
2019-03-21T23:48:01.007Z,4.00
2019-03-21T23:50:29.571Z,3.90
2019-03-21T23:52:58.239Z,3.70
2019-03-21T23:55:26.842Z,3.70
2019-03-21T23:57:55.493Z,3.60
